DLH55E LEMG-EDDM
Flight info
| Callsign | DLH55E |
|---|---|
| Flight time | 2h 27m |
| Altitude | 34000 |
| Route | BLN L27 YAKXU DCT RONNY DCT TOPTU DCT TOU DCT GAI DCT MEN DCT NINUN DCT LATAM DCT ETREK DCT LTP DCT SOPLO DCT OMASI DCT KINNI DCT SOSAL DCT KORED DCT BERSU N871 DITON/N0445F350 DCT NUNRI T103 BETOS BETOS1B |
| Aircraft | A321/M-SDE3FGHIRWY/LB1 |
Departure
| Time | 2026-05-06 15:56 |
|---|---|
| Airport | Málaga-Costa del Sol Airport (LEMG) |
Arrival
| Time | 2026-05-06 18:23 |
|---|---|
| Airport | Munich Airport (EDDM) |
| Time | Latitude | Longitude | Altitude | Speed | Heading |
|---|---|---|---|---|---|
| 2026-05-06 15:32 | 36.67888 | -4.49569 | 42 ft | 0 kts | 132° |
| 2026-05-06 15:34 | 36.67889 | -4.49569 | 42 ft | 0 kts | 132° |
| 2026-05-06 15:44 | 36.67902 | -4.49588 | 40 ft | 4 kts | 134° |
| 2026-05-06 15:45 | 36.67921 | -4.49612 | 39 ft | 4 kts | 137° |
| 2026-05-06 15:45 | 36.67942 | -4.49634 | 42 ft | 4 kts | 144° |
| 2026-05-06 15:45 | 36.67965 | -4.49649 | 42 ft | 4 kts | 172° |
| 2026-05-06 15:45 | 36.67985 | -4.49644 | 37 ft | 4 kts | 213° |
| 2026-05-06 15:46 | 36.67998 | -4.49632 | 41 ft | 0 kts | 221° |
| 2026-05-06 15:49 | 36.67997 | -4.49633 | 39 ft | 1 kts | 221° |
| 2026-05-06 15:49 | 36.67972 | -4.49660 | 40 ft | 9 kts | 221° |
| 2026-05-06 15:49 | 36.67908 | -4.49731 | 42 ft | 14 kts | 221° |
| 2026-05-06 15:49 | 36.67836 | -4.49810 | 42 ft | 14 kts | 221° |
| 2026-05-06 15:50 | 36.67795 | -4.49885 | 42 ft | 10 kts | 275° |
| 2026-05-06 15:50 | 36.67833 | -4.49953 | 42 ft | 10 kts | 311° |
| 2026-05-06 15:50 | 36.67885 | -4.50026 | 42 ft | 15 kts | 311° |
| 2026-05-06 15:50 | 36.67968 | -4.50143 | 42 ft | 19 kts | 312° |
| 2026-05-06 15:51 | 36.68058 | -4.50269 | 42 ft | 20 kts | 311° |
| 2026-05-06 15:51 | 36.68150 | -4.50397 | 42 ft | 20 kts | 312° |
| 2026-05-06 15:51 | 36.68245 | -4.50523 | 42 ft | 20 kts | 311° |
| 2026-05-06 15:51 | 36.68291 | -4.50589 | 43 ft | 0 kts | 311° |
| 2026-05-06 15:52 | 36.68293 | -4.50591 | 43 ft | 2 kts | 311° |
| 2026-05-06 15:52 | 36.68329 | -4.50642 | 43 ft | 11 kts | 311° |
| 2026-05-06 15:52 | 36.68324 | -4.50720 | 45 ft | 10 kts | 230° |
| 2026-05-06 15:53 | 36.68326 | -4.50783 | 48 ft | 8 kts | 300° |
| 2026-05-06 15:53 | 36.68392 | -4.50877 | 49 ft | 20 kts | 311° |
| 2026-05-06 15:53 | 36.68481 | -4.50999 | 53 ft | 15 kts | 321° |
| 2026-05-06 15:53 | 36.68561 | -4.51060 | 50 ft | 14 kts | 313° |
| 2026-05-06 15:54 | 36.68571 | -4.51146 | 50 ft | 9 kts | 234° |
| 2026-05-06 15:54 | 36.68537 | -4.51182 | 50 ft | 4 kts | 220° |
| 2026-05-06 15:54 | 36.68508 | -4.51206 | 53 ft | 8 kts | 205° |
| 2026-05-06 15:54 | 36.68441 | -4.51216 | 61 ft | 8 kts | 185° |
| 2026-05-06 15:55 | 36.68405 | -4.51191 | 57 ft | 0 kts | 131° |
| 2026-05-06 15:55 | 36.68402 | -4.51188 | 58 ft | 6 kts | 131° |
| 2026-05-06 15:55 | 36.68211 | -4.50919 | 55 ft | 77 kts | 131° |
| 2026-05-06 15:55 | 36.67712 | -4.50221 | 50 ft | 136 kts | 131° |
| 2026-05-06 15:56 | 36.66974 | -4.49184 | 87 ft | 179 kts | 131° |
| 2026-05-06 15:56 | 36.66164 | -4.48031 | 758 ft | 175 kts | 133° |
| 2026-05-06 15:56 | 36.65340 | -4.46885 | 1399 ft | 182 kts | 135° |
| 2026-05-06 15:56 | 36.64445 | -4.45641 | 1528 ft | 205 kts | 134° |
| 2026-05-06 15:57 | 36.63445 | -4.44257 | 1731 ft | 223 kts | 135° |
| 2026-05-06 15:57 | 36.62408 | -4.42818 | 2219 ft | 228 kts | 133° |
| 2026-05-06 15:57 | 36.61353 | -4.41331 | 2777 ft | 230 kts | 131° |
| 2026-05-06 15:57 | 36.60318 | -4.39804 | 3321 ft | 232 kts | 123° |
| 2026-05-06 15:58 | 36.59729 | -4.37935 | 3810 ft | 235 kts | 100° |
| 2026-05-06 15:58 | 36.59394 | -4.35924 | 4405 ft | 239 kts | 100° |
| 2026-05-06 15:58 | 36.59056 | -4.33888 | 5034 ft | 241 kts | 101° |
| 2026-05-06 15:58 | 36.58713 | -4.31832 | 5663 ft | 244 kts | 99° |
| 2026-05-06 15:59 | 36.58520 | -4.29740 | 6290 ft | 244 kts | 85° |
| 2026-05-06 15:59 | 36.58890 | -4.27683 | 6783 ft | 249 kts | 64° |
| 2026-05-06 15:59 | 36.59836 | -4.25857 | 7212 ft | 256 kts | 49° |
| 2026-05-06 15:59 | 36.60963 | -4.24109 | 7722 ft | 262 kts | 50° |
| 2026-05-06 16:00 | 36.62130 | -4.22335 | 8273 ft | 266 kts | 44° |
| 2026-05-06 16:00 | 36.63573 | -4.20879 | 8791 ft | 271 kts | 29° |
| 2026-05-06 16:00 | 36.65345 | -4.19901 | 8999 ft | 287 kts | 15° |
| 2026-05-06 16:00 | 36.67270 | -4.19123 | 9486 ft | 294 kts | 16° |
| 2026-05-06 16:01 | 36.69229 | -4.18330 | 10045 ft | 298 kts | 17° |
| 2026-05-06 16:01 | 36.71253 | -4.17511 | 10247 ft | 316 kts | 17° |
| 2026-05-06 16:01 | 36.73414 | -4.16652 | 10378 ft | 335 kts | 16° |
| 2026-05-06 16:01 | 36.75698 | -4.15765 | 10513 ft | 352 kts | 16° |
| 2026-05-06 16:02 | 36.78071 | -4.14850 | 10882 ft | 360 kts | 16° |
| 2026-05-06 16:02 | 36.80475 | -4.13921 | 11392 ft | 364 kts | 16° |
| 2026-05-06 16:02 | 36.82907 | -4.12980 | 11905 ft | 367 kts | 16° |
| 2026-05-06 16:02 | 36.85353 | -4.12029 | 12446 ft | 370 kts | 16° |
| 2026-05-06 16:03 | 36.87825 | -4.11067 | 12973 ft | 373 kts | 16° |
| 2026-05-06 16:03 | 36.90311 | -4.10095 | 13509 ft | 377 kts | 16° |
| 2026-05-06 16:03 | 36.92824 | -4.09110 | 14004 ft | 380 kts | 16° |
| 2026-05-06 16:03 | 36.95361 | -4.08114 | 14434 ft | 384 kts | 16° |
| 2026-05-06 16:04 | 36.97922 | -4.07110 | 14914 ft | 387 kts | 16° |
| 2026-05-06 16:04 | 37.00496 | -4.06101 | 15348 ft | 390 kts | 16° |
| 2026-05-06 16:04 | 37.03091 | -4.05080 | 15828 ft | 392 kts | 16° |
| 2026-05-06 16:04 | 37.05698 | -4.04058 | 16301 ft | 394 kts | 15° |
| 2026-05-06 16:05 | 37.08325 | -4.03031 | 16768 ft | 397 kts | 16° |
| 2026-05-06 16:05 | 37.10969 | -4.01994 | 17209 ft | 400 kts | 16° |
| 2026-05-06 16:05 | 37.13638 | -4.00945 | 17651 ft | 403 kts | 16° |
| 2026-05-06 16:05 | 37.16320 | -3.99891 | 18081 ft | 406 kts | 15° |
| 2026-05-06 16:06 | 37.19024 | -3.98828 | 18448 ft | 409 kts | 15° |
| 2026-05-06 16:06 | 37.21755 | -3.97778 | 18796 ft | 412 kts | 14° |
| 2026-05-06 16:06 | 37.24512 | -3.96743 | 19147 ft | 414 kts | 14° |
| 2026-05-06 16:06 | 37.27287 | -3.95716 | 19497 ft | 417 kts | 14° |
| 2026-05-06 16:07 | 37.30076 | -3.94685 | 19867 ft | 420 kts | 14° |
| 2026-05-06 16:07 | 37.32887 | -3.93645 | 20228 ft | 422 kts | 14° |
| 2026-05-06 16:07 | 37.35714 | -3.92597 | 20575 ft | 425 kts | 14° |
| 2026-05-06 16:07 | 37.38557 | -3.91537 | 20922 ft | 428 kts | 14° |
| 2026-05-06 16:08 | 37.41419 | -3.90464 | 21287 ft | 430 kts | 13° |
| 2026-05-06 16:08 | 37.44289 | -3.89385 | 21674 ft | 431 kts | 13° |
| 2026-05-06 16:08 | 37.47169 | -3.88303 | 22040 ft | 433 kts | 13° |
| 2026-05-06 16:08 | 37.50062 | -3.87218 | 22393 ft | 435 kts | 13° |
| 2026-05-06 16:09 | 37.52932 | -3.86142 | 22740 ft | 437 kts | 13° |
| 2026-05-06 16:09 | 37.55854 | -3.85044 | 23075 ft | 440 kts | 13° |
| 2026-05-06 16:09 | 37.58796 | -3.83934 | 23406 ft | 442 kts | 13° |
| 2026-05-06 16:09 | 37.61747 | -3.82818 | 23688 ft | 444 kts | 13° |
| 2026-05-06 16:10 | 37.64722 | -3.81694 | 23935 ft | 447 kts | 13° |
| 2026-05-06 16:10 | 37.67706 | -3.80565 | 24221 ft | 449 kts | 13° |
| 2026-05-06 16:10 | 37.70706 | -3.79428 | 24522 ft | 451 kts | 13° |
| 2026-05-06 16:10 | 37.73714 | -3.78288 | 24783 ft | 453 kts | 13° |
| 2026-05-06 16:11 | 37.76741 | -3.77144 | 25004 ft | 456 kts | 13° |
| 2026-05-06 16:11 | 37.79788 | -3.75993 | 25245 ft | 458 kts | 13° |
| 2026-05-06 16:11 | 37.82850 | -3.74834 | 25505 ft | 460 kts | 13° |
| 2026-05-06 16:11 | 37.85929 | -3.73668 | 25747 ft | 463 kts | 13° |
| 2026-05-06 16:12 | 37.89022 | -3.72494 | 25996 ft | 465 kts | 13° |
| 2026-05-06 16:12 | 37.92133 | -3.71310 | 26237 ft | 468 kts | 13° |
| 2026-05-06 16:12 | 37.95258 | -3.70119 | 26470 ft | 471 kts | 13° |
| 2026-05-06 16:12 | 37.98406 | -3.68921 | 26704 ft | 473 kts | 13° |
| 2026-05-06 16:13 | 38.01565 | -3.67718 | 26943 ft | 476 kts | 13° |
| 2026-05-06 16:13 | 38.04744 | -3.66505 | 27171 ft | 478 kts | 12° |
| 2026-05-06 16:13 | 38.07934 | -3.65285 | 27410 ft | 480 kts | 13° |
| 2026-05-06 16:13 | 38.11143 | -3.64053 | 27651 ft | 483 kts | 12° |
| 2026-05-06 16:14 | 38.14365 | -3.62815 | 27896 ft | 485 kts | 12° |
| 2026-05-06 16:14 | 38.17599 | -3.61509 | 28069 ft | 490 kts | 14° |
| 2026-05-06 16:14 | 38.20826 | -3.60070 | 28285 ft | 493 kts | 16° |
| 2026-05-06 16:14 | 38.24049 | -3.58533 | 28492 ft | 496 kts | 17° |
| 2026-05-06 16:15 | 38.27277 | -3.56941 | 28695 ft | 499 kts | 17° |
| 2026-05-06 16:15 | 38.30519 | -3.55335 | 28891 ft | 501 kts | 17° |
| 2026-05-06 16:15 | 38.33775 | -3.53739 | 29082 ft | 503 kts | 17° |
| 2026-05-06 16:15 | 38.37009 | -3.52179 | 29267 ft | 504 kts | 16° |
| 2026-05-06 16:16 | 38.40301 | -3.50612 | 29424 ft | 506 kts | 16° |
| 2026-05-06 16:16 | 38.43608 | -3.49051 | 29654 ft | 507 kts | 16° |
| 2026-05-06 16:16 | 38.46917 | -3.47493 | 29921 ft | 507 kts | 16° |
| 2026-05-06 16:16 | 38.50222 | -3.45940 | 30132 ft | 507 kts | 15° |
| 2026-05-06 16:17 | 38.53523 | -3.44387 | 30364 ft | 506 kts | 15° |
| 2026-05-06 16:17 | 38.56830 | -3.42825 | 30570 ft | 506 kts | 16° |
| 2026-05-06 16:17 | 38.60127 | -3.41259 | 30817 ft | 505 kts | 16° |
| 2026-05-06 16:17 | 38.63417 | -3.39690 | 31049 ft | 505 kts | 15° |
| 2026-05-06 16:18 | 38.66704 | -3.38118 | 31254 ft | 505 kts | 15° |
| 2026-05-06 16:18 | 38.69990 | -3.36546 | 31468 ft | 504 kts | 15° |
| 2026-05-06 16:18 | 38.73281 | -3.34971 | 31674 ft | 504 kts | 15° |
| 2026-05-06 16:18 | 38.76564 | -3.33402 | 31881 ft | 504 kts | 15° |
| 2026-05-06 16:19 | 38.79845 | -3.31831 | 32115 ft | 503 kts | 15° |
| 2026-05-06 16:19 | 38.83127 | -3.30258 | 32324 ft | 503 kts | 15° |
| 2026-05-06 16:19 | 38.86401 | -3.28688 | 32593 ft | 502 kts | 15° |
| 2026-05-06 16:19 | 38.89664 | -3.27119 | 32860 ft | 500 kts | 15° |
| 2026-05-06 16:20 | 38.92914 | -3.25552 | 33097 ft | 499 kts | 15° |
| 2026-05-06 16:20 | 38.96164 | -3.23984 | 33309 ft | 498 kts | 15° |
| 2026-05-06 16:20 | 38.99411 | -3.22418 | 33513 ft | 498 kts | 15° |
| 2026-05-06 16:20 | 39.02655 | -3.20856 | 33706 ft | 498 kts | 15° |
| 2026-05-06 16:21 | 39.05898 | -3.19297 | 33905 ft | 497 kts | 15° |
| 2026-05-06 16:21 | 39.09137 | -3.17737 | 34094 ft | 497 kts | 15° |
| 2026-05-06 16:21 | 39.12363 | -3.16175 | 34314 ft | 495 kts | 15° |
| 2026-05-06 16:21 | 39.15580 | -3.14613 | 34498 ft | 493 kts | 15° |
| 2026-05-06 16:22 | 39.18789 | -3.13054 | 34684 ft | 493 kts | 15° |
| 2026-05-06 16:22 | 39.21991 | -3.11499 | 34842 ft | 492 kts | 15° |
| 2026-05-06 16:22 | 39.28390 | -3.08398 | 34900 ft | 491 kts | 15° |
| 2026-05-06 16:23 | 39.34772 | -3.05288 | 34897 ft | 488 kts | 16° |
| 2026-05-06 16:23 | 39.41134 | -3.02180 | 34906 ft | 489 kts | 15° |
| 2026-05-06 16:24 | 39.47502 | -2.99054 | 34910 ft | 490 kts | 16° |
| 2026-05-06 16:24 | 39.53869 | -2.95917 | 34914 ft | 490 kts | 16° |
| 2026-05-06 16:25 | 39.59165 | -2.93308 | 34942 ft | 490 kts | 16° |
| 2026-05-06 16:25 | 39.65528 | -2.90173 | 34941 ft | 489 kts | 16° |
| 2026-05-06 16:26 | 39.72923 | -2.86525 | 34952 ft | 489 kts | 16° |
| 2026-05-06 16:26 | 39.78243 | -2.83901 | 34973 ft | 488 kts | 17° |
| 2026-05-06 16:27 | 39.84591 | -2.80767 | 34964 ft | 487 kts | 17° |
| 2026-05-06 16:27 | 39.90866 | -2.77652 | 34960 ft | 486 kts | 17° |
| 2026-05-06 16:28 | 39.97186 | -2.74502 | 34958 ft | 485 kts | 17° |
| 2026-05-06 16:28 | 40.03489 | -2.71368 | 34970 ft | 484 kts | 17° |
| 2026-05-06 16:29 | 40.09780 | -2.68243 | 34963 ft | 483 kts | 17° |
| 2026-05-06 16:29 | 40.16057 | -2.65099 | 34956 ft | 483 kts | 17° |
| 2026-05-06 16:30 | 40.21273 | -2.62469 | 34953 ft | 483 kts | 17° |
| 2026-05-06 16:30 | 40.28603 | -2.58785 | 34968 ft | 482 kts | 17° |
| 2026-05-06 16:31 | 40.34857 | -2.55644 | 34962 ft | 481 kts | 17° |
| 2026-05-06 16:31 | 40.40966 | -2.52021 | 34958 ft | 483 kts | 23° |
| 2026-05-06 16:32 | 40.46979 | -2.48075 | 34966 ft | 483 kts | 23° |
| 2026-05-06 16:32 | 40.52981 | -2.44142 | 34964 ft | 482 kts | 23° |
| 2026-05-06 16:33 | 40.58976 | -2.40210 | 34958 ft | 481 kts | 23° |
| 2026-05-06 16:34 | 40.67951 | -2.34309 | 34959 ft | 481 kts | 23° |
| 2026-05-06 16:34 | 40.73928 | -2.30370 | 34960 ft | 480 kts | 23° |
| 2026-05-06 16:35 | 40.79867 | -2.26442 | 34954 ft | 481 kts | 23° |
| 2026-05-06 16:35 | 40.85852 | -2.22491 | 34953 ft | 481 kts | 23° |
| 2026-05-06 16:36 | 40.91834 | -2.18530 | 34970 ft | 481 kts | 23° |
| 2026-05-06 16:36 | 40.97811 | -2.14548 | 34968 ft | 480 kts | 23° |
| 2026-05-06 16:37 | 41.03776 | -2.10564 | 34969 ft | 480 kts | 23° |
| 2026-05-06 16:37 | 41.09656 | -2.06361 | 34965 ft | 482 kts | 29° |
| 2026-05-06 16:38 | 41.15335 | -2.01627 | 34973 ft | 482 kts | 29° |
| 2026-05-06 16:38 | 41.20996 | -1.96888 | 34968 ft | 481 kts | 29° |
| 2026-05-06 16:39 | 41.26647 | -1.92145 | 34966 ft | 480 kts | 29° |
| 2026-05-06 16:39 | 41.32294 | -1.87410 | 34957 ft | 480 kts | 29° |
| 2026-05-06 16:40 | 41.37945 | -1.82659 | 34979 ft | 480 kts | 29° |
| 2026-05-06 16:40 | 41.43591 | -1.77902 | 34977 ft | 480 kts | 29° |
| 2026-05-06 16:41 | 41.49188 | -1.73168 | 34969 ft | 479 kts | 29° |
| 2026-05-06 16:41 | 41.54856 | -1.68379 | 34977 ft | 479 kts | 29° |
| 2026-05-06 16:42 | 41.60447 | -1.63641 | 34980 ft | 479 kts | 29° |
| 2026-05-06 16:42 | 41.66060 | -1.58854 | 34980 ft | 478 kts | 29° |
| 2026-05-06 16:43 | 41.71669 | -1.54077 | 34981 ft | 478 kts | 29° |
| 2026-05-06 16:43 | 41.77274 | -1.49300 | 35002 ft | 478 kts | 29° |
| 2026-05-06 16:44 | 41.82884 | -1.44510 | 34988 ft | 478 kts | 29° |
| 2026-05-06 16:44 | 41.88478 | -1.39712 | 34993 ft | 477 kts | 29° |
| 2026-05-06 16:45 | 41.94064 | -1.34905 | 34984 ft | 477 kts | 29° |
| 2026-05-06 16:45 | 41.99652 | -1.30100 | 34995 ft | 477 kts | 29° |
| 2026-05-06 16:46 | 42.05236 | -1.25289 | 34990 ft | 476 kts | 29° |
| 2026-05-06 16:46 | 42.10740 | -1.20331 | 34983 ft | 478 kts | 36° |
| 2026-05-06 16:47 | 42.15887 | -1.14628 | 34980 ft | 478 kts | 36° |
| 2026-05-06 16:47 | 42.21031 | -1.08916 | 34996 ft | 479 kts | 36° |
| 2026-05-06 16:48 | 42.26173 | -1.03190 | 34978 ft | 479 kts | 36° |
| 2026-05-06 16:48 | 42.31315 | -0.97454 | 34975 ft | 479 kts | 36° |
| 2026-05-06 16:49 | 42.36453 | -0.91713 | 34981 ft | 479 kts | 36° |
| 2026-05-06 16:49 | 42.41584 | -0.85948 | 34986 ft | 480 kts | 39° |
| 2026-05-06 16:50 | 42.45987 | -0.79096 | 34972 ft | 484 kts | 50° |
| 2026-05-06 16:50 | 42.50088 | -0.71852 | 34963 ft | 485 kts | 50° |
| 2026-05-06 16:51 | 42.54211 | -0.64605 | 34967 ft | 486 kts | 50° |
| 2026-05-06 16:51 | 42.58334 | -0.57336 | 34975 ft | 486 kts | 50° |
| 2026-05-06 16:52 | 42.62450 | -0.50061 | 34987 ft | 486 kts | 50° |
| 2026-05-06 16:52 | 42.66554 | -0.42762 | 34983 ft | 486 kts | 50° |
| 2026-05-06 16:53 | 42.70653 | -0.35470 | 34993 ft | 485 kts | 50° |
| 2026-05-06 16:53 | 42.74743 | -0.28180 | 34990 ft | 485 kts | 50° |
| 2026-05-06 16:54 | 42.78825 | -0.20865 | 35019 ft | 485 kts | 50° |
| 2026-05-06 16:54 | 42.82971 | -0.13637 | 35002 ft | 484 kts | 48° |
| 2026-05-06 16:55 | 42.87269 | -0.06593 | 35012 ft | 483 kts | 47° |
| 2026-05-06 16:55 | 42.91580 | 0.00433 | 35015 ft | 484 kts | 47° |
| 2026-05-06 16:56 | 42.95856 | 0.07543 | 35008 ft | 485 kts | 48° |
| 2026-05-06 16:56 | 43.00079 | 0.14647 | 35005 ft | 486 kts | 48° |
| 2026-05-06 16:57 | 43.04362 | 0.21860 | 35040 ft | 485 kts | 49° |
| 2026-05-06 16:57 | 43.08583 | 0.28961 | 35032 ft | 483 kts | 48° |
| 2026-05-06 16:58 | 43.12808 | 0.36091 | 35024 ft | 482 kts | 49° |
| 2026-05-06 16:58 | 43.17031 | 0.43232 | 35020 ft | 483 kts | 49° |
| 2026-05-06 16:59 | 43.21261 | 0.50387 | 35002 ft | 483 kts | 49° |
| 2026-05-06 16:59 | 43.25480 | 0.57558 | 35016 ft | 483 kts | 49° |
| 2026-05-06 17:00 | 43.29687 | 0.64733 | 35002 ft | 481 kts | 49° |
| 2026-05-06 17:00 | 43.33878 | 0.71892 | 35002 ft | 481 kts | 49° |
| 2026-05-06 17:01 | 43.38062 | 0.79073 | 34985 ft | 481 kts | 49° |
| 2026-05-06 17:01 | 43.42249 | 0.86256 | 34980 ft | 482 kts | 49° |
| 2026-05-06 17:02 | 43.46442 | 0.93449 | 34993 ft | 481 kts | 49° |
| 2026-05-06 17:02 | 43.50616 | 1.00651 | 34990 ft | 481 kts | 49° |
| 2026-05-06 17:03 | 43.54774 | 1.07852 | 34982 ft | 480 kts | 49° |
| 2026-05-06 17:03 | 43.58930 | 1.15055 | 34974 ft | 479 kts | 49° |
| 2026-05-06 17:04 | 43.63080 | 1.22255 | 35002 ft | 480 kts | 49° |
| 2026-05-06 17:04 | 43.67226 | 1.29470 | 35001 ft | 479 kts | 50° |
| 2026-05-06 17:05 | 43.71295 | 1.36768 | 35001 ft | 479 kts | 51° |
| 2026-05-06 17:05 | 43.75225 | 1.44215 | 34994 ft | 479 kts | 52° |
| 2026-05-06 17:06 | 43.79135 | 1.51682 | 34984 ft | 479 kts | 52° |
| 2026-05-06 17:06 | 43.83081 | 1.59124 | 34974 ft | 480 kts | 52° |
| 2026-05-06 17:07 | 43.87042 | 1.66569 | 34966 ft | 480 kts | 52° |
| 2026-05-06 17:07 | 43.91022 | 1.74078 | 34958 ft | 480 kts | 52° |
| 2026-05-06 17:08 | 43.94958 | 1.81557 | 34958 ft | 480 kts | 52° |
| 2026-05-06 17:08 | 43.98812 | 1.89078 | 34960 ft | 481 kts | 54° |
| 2026-05-06 17:09 | 44.02597 | 1.96734 | 34963 ft | 481 kts | 54° |
| 2026-05-06 17:09 | 44.06377 | 2.04417 | 34960 ft | 481 kts | 54° |
| 2026-05-06 17:10 | 44.10169 | 2.12085 | 34964 ft | 481 kts | 54° |
| 2026-05-06 17:10 | 44.13970 | 2.19754 | 34963 ft | 481 kts | 54° |
| 2026-05-06 17:11 | 44.17763 | 2.27426 | 34962 ft | 481 kts | 54° |
| 2026-05-06 17:11 | 44.21548 | 2.35123 | 34971 ft | 482 kts | 54° |
| 2026-05-06 17:12 | 44.24715 | 2.41587 | 34967 ft | 482 kts | 54° |
| 2026-05-06 17:12 | 44.28490 | 2.49307 | 34967 ft | 481 kts | 54° |
| 2026-05-06 17:13 | 44.32263 | 2.57027 | 34966 ft | 481 kts | 54° |
| 2026-05-06 17:13 | 44.36030 | 2.64755 | 34966 ft | 481 kts | 54° |
| 2026-05-06 17:14 | 44.39791 | 2.72497 | 34964 ft | 482 kts | 55° |
| 2026-05-06 17:14 | 44.43551 | 2.80269 | 34963 ft | 482 kts | 55° |
| 2026-05-06 17:15 | 44.47301 | 2.88044 | 34965 ft | 482 kts | 55° |
| 2026-05-06 17:15 | 44.51055 | 2.95830 | 34959 ft | 482 kts | 55° |
| 2026-05-06 17:16 | 44.54801 | 3.03619 | 34959 ft | 482 kts | 55° |
| 2026-05-06 17:16 | 44.58542 | 3.11427 | 34958 ft | 482 kts | 56° |
| 2026-05-06 17:17 | 44.62211 | 3.19305 | 34954 ft | 482 kts | 58° |
| 2026-05-06 17:17 | 44.65543 | 3.27492 | 34947 ft | 483 kts | 61° |
| 2026-05-06 17:18 | 44.68715 | 3.35802 | 34945 ft | 483 kts | 61° |
| 2026-05-06 17:18 | 44.71917 | 3.44020 | 34942 ft | 483 kts | 60° |
| 2026-05-06 17:19 | 44.75217 | 3.52250 | 34930 ft | 483 kts | 60° |
| 2026-05-06 17:19 | 44.78518 | 3.60471 | 34930 ft | 483 kts | 60° |
| 2026-05-06 17:20 | 44.81797 | 3.68728 | 34928 ft | 483 kts | 60° |
| 2026-05-06 17:20 | 44.85060 | 3.77000 | 34930 ft | 483 kts | 60° |
| 2026-05-06 17:21 | 44.88315 | 3.85287 | 34915 ft | 484 kts | 61° |
| 2026-05-06 17:21 | 44.91577 | 3.93605 | 34914 ft | 485 kts | 61° |
| 2026-05-06 17:22 | 44.94840 | 4.01941 | 34929 ft | 485 kts | 61° |
| 2026-05-06 17:22 | 44.98098 | 4.10293 | 34931 ft | 485 kts | 61° |
| 2026-05-06 17:23 | 45.01350 | 4.18655 | 34936 ft | 485 kts | 61° |
| 2026-05-06 17:23 | 45.04594 | 4.27024 | 34922 ft | 486 kts | 61° |
| 2026-05-06 17:24 | 45.07841 | 4.35416 | 34920 ft | 487 kts | 61° |
| 2026-05-06 17:24 | 45.11084 | 4.43834 | 34934 ft | 487 kts | 61° |
| 2026-05-06 17:25 | 45.14327 | 4.52258 | 34936 ft | 487 kts | 61° |
| 2026-05-06 17:25 | 45.17550 | 4.60689 | 34935 ft | 486 kts | 62° |
| 2026-05-06 17:26 | 45.20766 | 4.69120 | 34923 ft | 486 kts | 62° |
| 2026-05-06 17:26 | 45.23983 | 4.77573 | 34924 ft | 487 kts | 62° |
| 2026-05-06 17:27 | 45.27199 | 4.86036 | 34922 ft | 487 kts | 62° |
| 2026-05-06 17:27 | 45.30411 | 4.94509 | 34946 ft | 487 kts | 62° |
| 2026-05-06 17:28 | 45.33608 | 5.02982 | 34948 ft | 486 kts | 62° |
| 2026-05-06 17:28 | 45.36794 | 5.11459 | 34934 ft | 486 kts | 62° |
| 2026-05-06 17:29 | 45.39973 | 5.19944 | 34940 ft | 486 kts | 62° |
| 2026-05-06 17:29 | 45.43147 | 5.28448 | 34940 ft | 486 kts | 62° |
| 2026-05-06 17:30 | 45.46312 | 5.36950 | 34951 ft | 486 kts | 63° |
| 2026-05-06 17:30 | 45.49995 | 5.44983 | 34946 ft | 485 kts | 47° |
| 2026-05-06 17:31 | 45.54903 | 5.51552 | 34928 ft | 484 kts | 41° |
| 2026-05-06 17:31 | 45.59939 | 5.57958 | 34925 ft | 485 kts | 41° |
| 2026-05-06 17:32 | 45.64964 | 5.64395 | 34934 ft | 485 kts | 41° |
| 2026-05-06 17:32 | 45.69988 | 5.70848 | 34938 ft | 485 kts | 41° |
| 2026-05-06 17:33 | 45.75006 | 5.77308 | 34938 ft | 485 kts | 41° |
| 2026-05-06 17:33 | 45.80037 | 5.83773 | 34940 ft | 485 kts | 41° |
| 2026-05-06 17:34 | 45.85064 | 5.90237 | 34949 ft | 485 kts | 41° |
| 2026-05-06 17:34 | 45.90086 | 5.96721 | 34927 ft | 486 kts | 42° |
| 2026-05-06 17:35 | 45.95109 | 6.03233 | 34923 ft | 487 kts | 42° |
| 2026-05-06 17:35 | 46.00139 | 6.09761 | 34928 ft | 488 kts | 42° |
| 2026-05-06 17:36 | 46.07678 | 6.19584 | 34950 ft | 487 kts | 42° |
| 2026-05-06 17:36 | 46.12605 | 6.26223 | 34948 ft | 486 kts | 44° |
| 2026-05-06 17:37 | 46.17389 | 6.33089 | 34945 ft | 485 kts | 45° |
| 2026-05-06 17:37 | 46.22150 | 6.40004 | 34930 ft | 485 kts | 45° |
| 2026-05-06 17:38 | 46.26948 | 6.46890 | 34918 ft | 487 kts | 45° |
| 2026-05-06 17:38 | 46.31777 | 6.53779 | 34921 ft | 488 kts | 45° |
| 2026-05-06 17:39 | 46.36609 | 6.60697 | 34929 ft | 489 kts | 45° |
| 2026-05-06 17:39 | 46.41430 | 6.67644 | 34941 ft | 489 kts | 45° |
| 2026-05-06 17:40 | 46.46252 | 6.74606 | 34942 ft | 489 kts | 45° |
| 2026-05-06 17:40 | 46.51069 | 6.81568 | 34945 ft | 489 kts | 45° |
| 2026-05-06 17:41 | 46.55851 | 6.88580 | 34917 ft | 489 kts | 50° |
| 2026-05-06 17:41 | 46.60150 | 6.96253 | 34905 ft | 490 kts | 52° |
| 2026-05-06 17:42 | 46.64445 | 7.03986 | 34905 ft | 492 kts | 52° |
| 2026-05-06 17:42 | 46.68740 | 7.11743 | 34908 ft | 493 kts | 52° |
| 2026-05-06 17:43 | 46.73045 | 7.19532 | 34916 ft | 493 kts | 52° |
| 2026-05-06 17:43 | 46.77337 | 7.27332 | 34923 ft | 493 kts | 52° |
| 2026-05-06 17:44 | 46.81590 | 7.35078 | 34894 ft | 492 kts | 53° |
| 2026-05-06 17:44 | 46.85895 | 7.42947 | 34881 ft | 494 kts | 53° |
| 2026-05-06 17:45 | 46.90185 | 7.50811 | 34902 ft | 495 kts | 53° |
| 2026-05-06 17:45 | 46.94467 | 7.58703 | 34912 ft | 496 kts | 53° |
| 2026-05-06 17:46 | 46.98742 | 7.66613 | 34922 ft | 495 kts | 53° |
| 2026-05-06 17:46 | 47.03027 | 7.74534 | 34934 ft | 496 kts | 53° |
| 2026-05-06 17:47 | 47.07306 | 7.82464 | 34930 ft | 496 kts | 53° |
| 2026-05-06 17:47 | 47.11567 | 7.90427 | 34936 ft | 496 kts | 53° |
| 2026-05-06 17:48 | 47.15484 | 7.98633 | 34945 ft | 493 kts | 60° |
| 2026-05-06 17:48 | 47.19126 | 8.07154 | 34940 ft | 492 kts | 60° |
| 2026-05-06 17:49 | 47.22755 | 8.15679 | 34937 ft | 492 kts | 60° |
| 2026-05-06 17:49 | 47.26373 | 8.24208 | 34935 ft | 491 kts | 60° |
| 2026-05-06 17:50 | 47.29871 | 8.32823 | 34905 ft | 489 kts | 67° |
| 2026-05-06 17:50 | 47.32179 | 8.42178 | 34910 ft | 486 kts | 75° |
| 2026-05-06 17:51 | 47.34264 | 8.51625 | 34927 ft | 486 kts | 75° |
| 2026-05-06 17:51 | 47.36363 | 8.61107 | 34932 ft | 487 kts | 75° |
| 2026-05-06 17:52 | 47.38453 | 8.70606 | 34938 ft | 487 kts | 75° |
| 2026-05-06 17:52 | 47.40519 | 8.80089 | 34908 ft | 487 kts | 75° |
| 2026-05-06 17:53 | 47.42581 | 8.89595 | 34905 ft | 488 kts | 75° |
| 2026-05-06 17:53 | 47.44295 | 8.97530 | 34905 ft | 488 kts | 75° |
| 2026-05-06 17:54 | 47.46351 | 9.07087 | 34915 ft | 488 kts | 75° |
| 2026-05-06 17:54 | 47.48404 | 9.16643 | 34914 ft | 487 kts | 76° |
| 2026-05-06 17:55 | 47.49418 | 9.21422 | 34664 ft | 488 kts | 76° |
| 2026-05-06 17:55 | 47.50418 | 9.26248 | 34266 ft | 491 kts | 76° |
| 2026-05-06 17:55 | 47.51400 | 9.31070 | 33866 ft | 490 kts | 77° |
| 2026-05-06 17:55 | 47.52370 | 9.35883 | 33402 ft | 487 kts | 77° |
| 2026-05-06 17:56 | 47.53345 | 9.40740 | 32955 ft | 484 kts | 77° |
| 2026-05-06 17:56 | 47.54285 | 9.45421 | 32687 ft | 483 kts | 77° |
| 2026-05-06 17:56 | 47.55258 | 9.50264 | 32419 ft | 481 kts | 77° |
| 2026-05-06 17:56 | 47.56209 | 9.55003 | 32157 ft | 479 kts | 77° |
| 2026-05-06 17:57 | 47.57157 | 9.59729 | 31896 ft | 478 kts | 77° |
| 2026-05-06 17:57 | 47.58105 | 9.64446 | 31640 ft | 477 kts | 77° |
| 2026-05-06 17:57 | 47.59037 | 9.69076 | 31347 ft | 476 kts | 77° |
| 2026-05-06 17:57 | 47.59994 | 9.73840 | 31089 ft | 475 kts | 77° |
| 2026-05-06 17:58 | 47.60927 | 9.78515 | 30842 ft | 471 kts | 77° |
| 2026-05-06 17:58 | 47.61837 | 9.83101 | 30600 ft | 469 kts | 77° |
| 2026-05-06 17:58 | 47.62750 | 9.87717 | 30184 ft | 464 kts | 77° |
| 2026-05-06 17:58 | 47.63653 | 9.92297 | 29583 ft | 462 kts | 77° |
| 2026-05-06 17:59 | 47.64549 | 9.96843 | 29059 ft | 457 kts | 77° |
| 2026-05-06 17:59 | 47.65435 | 10.01347 | 28534 ft | 453 kts | 77° |
| 2026-05-06 17:59 | 47.66312 | 10.05813 | 28020 ft | 449 kts | 77° |
| 2026-05-06 17:59 | 47.67178 | 10.10232 | 27506 ft | 444 kts | 77° |
| 2026-05-06 18:00 | 47.68034 | 10.14607 | 26997 ft | 440 kts | 78° |
| 2026-05-06 18:00 | 47.68882 | 10.18964 | 26523 ft | 437 kts | 78° |
| 2026-05-06 18:00 | 47.69720 | 10.23273 | 26043 ft | 433 kts | 78° |
| 2026-05-06 18:00 | 47.70549 | 10.27545 | 25577 ft | 429 kts | 78° |
| 2026-05-06 18:01 | 47.71370 | 10.31784 | 25126 ft | 425 kts | 77° |
| 2026-05-06 18:01 | 47.72182 | 10.35976 | 24670 ft | 421 kts | 77° |
| 2026-05-06 18:01 | 47.72984 | 10.40132 | 24239 ft | 417 kts | 77° |
| 2026-05-06 18:01 | 47.73777 | 10.44250 | 23805 ft | 413 kts | 77° |
| 2026-05-06 18:02 | 47.74560 | 10.48339 | 23332 ft | 409 kts | 77° |
| 2026-05-06 18:02 | 47.75332 | 10.52383 | 22860 ft | 404 kts | 77° |
| 2026-05-06 18:02 | 47.76093 | 10.56367 | 22413 ft | 399 kts | 77° |
| 2026-05-06 18:02 | 47.76847 | 10.60311 | 21951 ft | 393 kts | 77° |
| 2026-05-06 18:03 | 47.77589 | 10.64199 | 21525 ft | 389 kts | 76° |
| 2026-05-06 18:03 | 47.78653 | 10.67877 | 21106 ft | 388 kts | 59° |
| 2026-05-06 18:03 | 47.80254 | 10.71113 | 20682 ft | 388 kts | 54° |
| 2026-05-06 18:03 | 47.81898 | 10.74277 | 20240 ft | 385 kts | 54° |
| 2026-05-06 18:04 | 47.83537 | 10.77409 | 19820 ft | 382 kts | 54° |
| 2026-05-06 18:04 | 47.85168 | 10.80511 | 19401 ft | 379 kts | 54° |
| 2026-05-06 18:04 | 47.86785 | 10.83585 | 18988 ft | 376 kts | 54° |
| 2026-05-06 18:04 | 47.88390 | 10.86653 | 18583 ft | 373 kts | 54° |
| 2026-05-06 18:05 | 47.89974 | 10.89693 | 18176 ft | 370 kts | 54° |
| 2026-05-06 18:05 | 47.91548 | 10.92720 | 17720 ft | 369 kts | 54° |
| 2026-05-06 18:05 | 47.93111 | 10.95727 | 17268 ft | 365 kts | 54° |
| 2026-05-06 18:05 | 47.94662 | 10.98710 | 16819 ft | 363 kts | 54° |
| 2026-05-06 18:06 | 47.96207 | 11.01684 | 16379 ft | 361 kts | 54° |
| 2026-05-06 18:06 | 47.97739 | 11.04641 | 15942 ft | 361 kts | 54° |
| 2026-05-06 18:06 | 47.99270 | 11.07601 | 15516 ft | 359 kts | 54° |
| 2026-05-06 18:06 | 48.00787 | 11.10539 | 15077 ft | 355 kts | 54° |
| 2026-05-06 18:07 | 48.02281 | 11.13455 | 14642 ft | 351 kts | 56° |
| 2026-05-06 18:07 | 48.03517 | 11.16564 | 14223 ft | 346 kts | 64° |
| 2026-05-06 18:07 | 48.04636 | 11.19733 | 13826 ft | 343 kts | 64° |
| 2026-05-06 18:07 | 48.05735 | 11.22878 | 13416 ft | 340 kts | 64° |
| 2026-05-06 18:08 | 48.06821 | 11.25993 | 13022 ft | 336 kts | 64° |
| 2026-05-06 18:08 | 48.07894 | 11.29077 | 12626 ft | 332 kts | 64° |
| 2026-05-06 18:08 | 48.08951 | 11.32127 | 12236 ft | 329 kts | 64° |
| 2026-05-06 18:08 | 48.09994 | 11.35157 | 11841 ft | 326 kts | 64° |
| 2026-05-06 18:09 | 48.11015 | 11.38160 | 11469 ft | 323 kts | 64° |
| 2026-05-06 18:09 | 48.12028 | 11.41154 | 11097 ft | 321 kts | 64° |
| 2026-05-06 18:09 | 48.13030 | 11.44130 | 10729 ft | 320 kts | 64° |
| 2026-05-06 18:09 | 48.14104 | 11.46981 | 10365 ft | 318 kts | 52° |
| 2026-05-06 18:10 | 48.15700 | 11.49222 | 10003 ft | 314 kts | 30° |
| 2026-05-06 18:10 | 48.17649 | 11.50781 | 9626 ft | 313 kts | 24° |
| 2026-05-06 18:10 | 48.19540 | 11.52387 | 9221 ft | 313 kts | 33° |
| 2026-05-06 18:10 | 48.21204 | 11.54472 | 8812 ft | 312 kts | 44° |
| 2026-05-06 18:11 | 48.22579 | 11.56979 | 8431 ft | 311 kts | 56° |
| 2026-05-06 18:11 | 48.23624 | 11.59804 | 8054 ft | 309 kts | 66° |
| 2026-05-06 18:11 | 48.24302 | 11.62808 | 7826 ft | 300 kts | 78° |
| 2026-05-06 18:11 | 48.24623 | 11.65800 | 7833 ft | 282 kts | 86° |
| 2026-05-06 18:12 | 48.24843 | 11.68609 | 7836 ft | 270 kts | 86° |
| 2026-05-06 18:12 | 48.25063 | 11.71407 | 7838 ft | 269 kts | 86° |
| 2026-05-06 18:12 | 48.25283 | 11.74198 | 7763 ft | 269 kts | 86° |
| 2026-05-06 18:12 | 48.25502 | 11.76975 | 7429 ft | 267 kts | 85° |
| 2026-05-06 18:13 | 48.25718 | 11.79740 | 7095 ft | 267 kts | 85° |
| 2026-05-06 18:13 | 48.25930 | 11.82501 | 6747 ft | 267 kts | 85° |
| 2026-05-06 18:13 | 48.26138 | 11.85257 | 6424 ft | 266 kts | 85° |
| 2026-05-06 18:13 | 48.26345 | 11.88005 | 6110 ft | 264 kts | 85° |
| 2026-05-06 18:14 | 48.26551 | 11.90733 | 5754 ft | 263 kts | 85° |
| 2026-05-06 18:14 | 48.26757 | 11.93469 | 5388 ft | 264 kts | 84° |
| 2026-05-06 18:14 | 48.26961 | 11.96197 | 5050 ft | 262 kts | 84° |
| 2026-05-06 18:14 | 48.27165 | 11.98897 | 5005 ft | 262 kts | 84° |
| 2026-05-06 18:15 | 48.27370 | 12.01625 | 5000 ft | 263 kts | 84° |
| 2026-05-06 18:15 | 48.27576 | 12.04360 | 5002 ft | 264 kts | 84° |
| 2026-05-06 18:15 | 48.27778 | 12.07095 | 4995 ft | 264 kts | 84° |
| 2026-05-06 18:15 | 48.27979 | 12.09839 | 4996 ft | 261 kts | 85° |
| 2026-05-06 18:16 | 48.28428 | 12.12421 | 4991 ft | 255 kts | 60° |
| 2026-05-06 18:16 | 48.29620 | 12.14342 | 4989 ft | 251 kts | 28° |
| 2026-05-06 18:16 | 48.31248 | 12.15104 | 4954 ft | 245 kts | 0° |
| 2026-05-06 18:16 | 48.32926 | 12.15076 | 4646 ft | 236 kts | 344° |
| 2026-05-06 18:17 | 48.34304 | 12.14052 | 4464 ft | 215 kts | 311° |
| 2026-05-06 18:17 | 48.35140 | 12.12271 | 4246 ft | 202 kts | 296° |
| 2026-05-06 18:17 | 48.35783 | 12.10505 | 4142 ft | 184 kts | 294° |
| 2026-05-06 18:17 | 48.36345 | 12.08879 | 4051 ft | 166 kts | 285° |
| 2026-05-06 18:18 | 48.36488 | 12.07256 | 3996 ft | 149 kts | 264° |
| 2026-05-06 18:18 | 48.36376 | 12.05754 | 3996 ft | 141 kts | 264° |
| 2026-05-06 18:18 | 48.36270 | 12.04307 | 3998 ft | 138 kts | 264° |
| 2026-05-06 18:18 | 48.36165 | 12.02873 | 4003 ft | 137 kts | 264° |
| 2026-05-06 18:19 | 48.36059 | 12.01443 | 4003 ft | 138 kts | 265° |
| 2026-05-06 18:19 | 48.35953 | 12.00018 | 3976 ft | 137 kts | 264° |
| 2026-05-06 18:19 | 48.35847 | 11.98598 | 3866 ft | 137 kts | 263° |
| 2026-05-06 18:19 | 48.35741 | 11.97181 | 3712 ft | 136 kts | 263° |
| 2026-05-06 18:20 | 48.35636 | 11.95777 | 3539 ft | 134 kts | 264° |
| 2026-05-06 18:20 | 48.35531 | 11.94388 | 3374 ft | 133 kts | 263° |
| 2026-05-06 18:20 | 48.35430 | 11.93011 | 3207 ft | 132 kts | 264° |
| 2026-05-06 18:20 | 48.35327 | 11.91643 | 3040 ft | 133 kts | 264° |
| 2026-05-06 18:21 | 48.35221 | 11.90250 | 2857 ft | 136 kts | 264° |
| 2026-05-06 18:21 | 48.35114 | 11.88824 | 2636 ft | 138 kts | 263° |
| 2026-05-06 18:21 | 48.35005 | 11.87383 | 2431 ft | 138 kts | 261° |
| 2026-05-06 18:21 | 48.34900 | 11.85969 | 2259 ft | 137 kts | 261° |
| 2026-05-06 18:22 | 48.34789 | 11.84538 | 2069 ft | 136 kts | 261° |
| 2026-05-06 18:22 | 48.34685 | 11.83147 | 1873 ft | 134 kts | 261° |
| 2026-05-06 18:22 | 48.34578 | 11.81752 | 1690 ft | 133 kts | 262° |
| 2026-05-06 18:22 | 48.34477 | 11.80401 | 1528 ft | 129 kts | 263° |
| 2026-05-06 18:23 | 48.34377 | 11.79157 | 1478 ft | 107 kts | 264° |
| 2026-05-06 18:23 | 48.34311 | 11.78270 | 1485 ft | 62 kts | 263° |
| 2026-05-06 18:23 | 48.34273 | 11.77772 | 1480 ft | 42 kts | 263° |
| 2026-05-06 18:23 | 48.34252 | 11.77414 | 1485 ft | 25 kts | 272° |
| 2026-05-06 18:24 | 48.34285 | 11.77172 | 1482 ft | 23 kts | 291° |
| 2026-05-06 18:24 | 48.34334 | 11.76996 | 1478 ft | 13 kts | 293° |
| 2026-05-06 18:24 | 48.34371 | 11.76867 | 1480 ft | 13 kts | 293° |
| 2026-05-06 18:24 | 48.34409 | 11.76752 | 1479 ft | 11 kts | 309° |
| 2026-05-06 18:25 | 48.34480 | 11.76701 | 1485 ft | 12 kts | 347° |
| 2026-05-06 18:25 | 48.34558 | 11.76705 | 1482 ft | 11 kts | 35° |
| 2026-05-06 18:25 | 48.34580 | 11.76817 | 1480 ft | 12 kts | 83° |
| 2026-05-06 18:25 | 48.34591 | 11.76953 | 1483 ft | 14 kts | 83° |
| 2026-05-06 18:26 | 48.34602 | 11.77101 | 1485 ft | 15 kts | 83° |
| 2026-05-06 18:26 | 48.34615 | 11.77267 | 1483 ft | 16 kts | 83° |
| 2026-05-06 18:26 | 48.34628 | 11.77445 | 1477 ft | 18 kts | 83° |
| 2026-05-06 18:26 | 48.34645 | 11.77657 | 1482 ft | 24 kts | 83° |
| 2026-05-06 18:27 | 48.34664 | 11.77913 | 1485 ft | 25 kts | 83° |
| 2026-05-06 18:27 | 48.34684 | 11.78174 | 1475 ft | 26 kts | 83° |
| 2026-05-06 18:27 | 48.34705 | 11.78450 | 1485 ft | 27 kts | 83° |
| 2026-05-06 18:27 | 48.34727 | 11.78731 | 1477 ft | 27 kts | 83° |
| 2026-05-06 18:28 | 48.34750 | 11.79020 | 1485 ft | 28 kts | 83° |
| 2026-05-06 18:28 | 48.34771 | 11.79303 | 1477 ft | 22 kts | 83° |
| 2026-05-06 18:28 | 48.34784 | 11.79466 | 1474 ft | 12 kts | 83° |
| 2026-05-06 18:28 | 48.34813 | 11.79558 | 1480 ft | 10 kts | 25° |
| 2026-05-06 18:29 | 48.34888 | 11.79552 | 1478 ft | 13 kts | 354° |
| 2026-05-06 18:29 | 48.34981 | 11.79566 | 1481 ft | 14 kts | 30° |
| 2026-05-06 18:29 | 48.35080 | 11.79588 | 1485 ft | 15 kts | 354° |
| 2026-05-06 18:29 | 48.35183 | 11.79567 | 1485 ft | 10 kts | 351° |
| 2026-05-06 18:30 | 48.35252 | 11.79551 | 1479 ft | 9 kts | 349° |
| 2026-05-06 18:30 | 48.35282 | 11.79478 | 1485 ft | 9 kts | 265° |
| 2026-05-06 18:30 | 48.35275 | 11.79392 | 1483 ft | 7 kts | 263° |
| 2026-05-06 18:30 | 48.35272 | 11.79351 | 1485 ft | 1 kts | 263° |
| 2026-05-06 18:31 | 48.35271 | 11.79347 | 1474 ft | 0 kts | 263° |